This is the latest recevied weather packets stored in our database for station/object DL7HMX-13. If no packets are shown the sender has not sent any weather packets the latest 10 day(s).
| Time | Temp. | Humidity | Pressure | Rain* | Wind** | Luminosity | Snow |
|---|---|---|---|---|---|---|---|
| 1777104027 | 13.33° C | 57% | 1017.9 hPa | 0 mm | - | 442 W/m² | - |
| 1777103430 | 12.22° C | 58% | 1018 hPa | 0 mm | - | 414 W/m² | - |
| 1777102816 | 12.22° C | 59% | 1018 hPa | 0 mm | - | 381 W/m² | - |
| 1777102219 | 12.22° C | 59% | 1018 hPa | 0 mm | - | 360 W/m² | - |
| 1777101623 | 11.11° C | 60% | 1018 hPa | 0 mm | - | 348 W/m² | - |
| 1777101025 | 10.56° C | 67% | 1018 hPa | 0 mm | - | 325 W/m² | - |
| 1777100427 | 10° C | 70% | 1018 hPa | 0 mm | - | 289 W/m² | - |
| 1777099830 | 8.89° C | 70% | 1018 hPa | 0 mm | - | 261 W/m² | - |
| 1777099217 | 10° C | 68% | 1018 hPa | 0 mm | - | 245 W/m² | - |
| 1777098620 | 9.44° C | 71% | 1018.1 hPa | 0 mm | - | 211 W/m² | - |
| 1777098022 | 7.22° C | 77% | 1018.1 hPa | 0 mm | - | 177 W/m² | - |
| 1777097424 | 7.22° C | 78% | 1018 hPa | 0 mm | - | 160 W/m² | - |
| 1777096826 | 6.67° C | 79% | 1018 hPa | 0 mm | - | 149 W/m² | - |
| 1777096229 | 5.56° C | 83% | 1018 hPa | 0 mm | - | 117 W/m² | - |
| 1777095632 | 5° C | 85% | 1018 hPa | 0 mm | - | 92 W/m² | - |
| 1777095018 | 5° C | 86% | 1017.9 hPa | 0 mm | - | 76 W/m² | - |
| 1777094420 | 4.44° C | 86% | 1018 hPa | 0 mm | - | 67 W/m² | - |
| 1777093823 | 5° C | 84% | 1018 hPa | 0 mm | - | 50 W/m² | - |
| 1777093226 | 4.44° C | 86% | 1017.8 hPa | 0 mm | - | 34 W/m² | - |
| 1777092630 | 3.33° C | 90% | 1017.9 hPa | 0 mm | - | 26 W/m² | - |
| 1777092018 | 2.78° C | 93% | 1017.8 hPa | 0 mm | - | 20 W/m² | - |
| 1777091418 | 2.22° C | 95% | 1017.6 hPa | 0 mm | - | 15 W/m² | - |
| 1777090820 | 1.67° C | 95% | 1017.6 hPa | 0 mm | - | 10 W/m² | - |
| 1777090223 | 1.67° C | 94% | 1017.4 hPa | 0 mm | - | 6 W/m² | - |
| 1777089626 | 1.67° C | 95% | 1017.4 hPa | 0 mm | - | 3 W/m² | - |
* Rain latest hour (hover to see other rain measurements)
** Current wind speed in m/s (hover to see current wind gust speed)